createdAt,value
2023-07-27T00:02:28.407Z,17.44
2023-07-27T00:05:00.570Z,17.39
2023-07-27T00:10:13.485Z,17.54
2023-07-27T00:12:46.508Z,17.50
2023-07-27T00:15:25.354Z,17.42
2023-07-27T00:17:57.984Z,17.33
2023-07-27T00:20:40.965Z,17.28
2023-07-27T00:23:11.876Z,17.20
2023-07-27T00:25:46.716Z,17.19
2023-07-27T00:28:17.247Z,17.15
2023-07-27T00:30:54.927Z,17.11
2023-07-27T00:33:32.722Z,17.08
2023-07-27T00:36:04.701Z,17.02
2023-07-27T00:38:35.487Z,16.99
2023-07-27T00:41:11.920Z,16.93
2023-07-27T00:43:41.664Z,16.97
2023-07-27T00:46:18.458Z,16.94
2023-07-27T00:48:49.284Z,16.97
2023-07-27T00:51:22.299Z,17.00
2023-07-27T00:53:52.839Z,17.02
2023-07-27T00:56:35.623Z,17.01
2023-07-27T00:59:08.396Z,17.01
2023-07-27T01:01:46.029Z,17.01
2023-07-27T01:04:18.965Z,17.05
2023-07-27T01:06:52.739Z,17.05
2023-07-27T01:09:28.485Z,17.08
2023-07-27T01:12:05.645Z,17.10
2023-07-27T01:14:51.086Z,17.17
2023-07-27T01:17:32.052Z,17.18
2023-07-27T01:20:27.141Z,17.18
2023-07-27T01:23:26.805Z,17.15
2023-07-27T01:26:23.731Z,17.08
2023-07-27T01:29:07.209Z,17.09
2023-07-27T01:31:45.784Z,17.07
2023-07-27T01:34:23.796Z,17.06
2023-07-27T01:37:09.675Z,17.07
2023-07-27T01:39:44.432Z,17.03
2023-07-27T01:42:18.668Z,16.98
2023-07-27T01:44:56.593Z,17.10
2023-07-27T01:47:33.370Z,17.16
2023-07-27T01:50:12.390Z,17.19
2023-07-27T01:52:48.250Z,17.25
2023-07-27T01:55:19.482Z,17.26
2023-07-27T01:57:50.739Z,17.30
2023-07-27T02:00:28.699Z,17.36
2023-07-27T02:03:03.406Z,17.43
2023-07-27T02:05:32.899Z,17.46
2023-07-27T02:08:08.798Z,17.51
2023-07-27T02:10:44.110Z,17.67
2023-07-27T02:13:23.548Z,17.74
2023-07-27T02:15:59.984Z,17.87
2023-07-27T02:18:33.853Z,17.92
2023-07-27T02:21:12.478Z,17.94
2023-07-27T02:23:44.800Z,17.98
2023-07-27T02:26:15.242Z,18.32
2023-07-27T02:28:47.645Z,18.39
2023-07-27T02:31:19.452Z,18.55
2023-07-27T02:33:52.233Z,18.51
2023-07-27T02:36:23.644Z,18.61
2023-07-27T02:39:03.369Z,18.65
2023-07-27T02:41:38.130Z,18.74
2023-07-27T02:44:14.601Z,18.79
2023-07-27T02:46:49.460Z,18.83
2023-07-27T02:49:21.256Z,18.78
2023-07-27T02:51:59.802Z,18.81
2023-07-27T02:54:30.309Z,18.75
2023-07-27T02:57:00.428Z,18.71
2023-07-27T02:59:37.320Z,18.68
2023-07-27T03:04:59.535Z,18.61
2023-07-27T03:07:31.043Z,18.40
2023-07-27T03:10:01.415Z,18.29
2023-07-27T03:12:34.511Z,18.48
2023-07-27T03:15:07.579Z,18.52
2023-07-27T03:17:43.144Z,18.62
2023-07-27T03:20:16.081Z,18.46
2023-07-27T03:22:46.222Z,18.50
2023-07-27T03:25:18.421Z,18.86
2023-07-27T03:27:49.676Z,19.49
2023-07-27T03:30:19.059Z,19.99
2023-07-27T03:32:51.410Z,20.32
2023-07-27T03:35:32.084Z,20.35
2023-07-27T03:38:06.378Z,20.34
2023-07-27T03:40:38.057Z,20.30
2023-07-27T03:43:14.751Z,20.33
2023-07-27T03:45:58.390Z,20.39
2023-07-27T03:48:29.458Z,20.36
2023-07-27T03:51:02.986Z,20.38
2023-07-27T03:53:33.316Z,20.54
2023-07-27T03:56:06.924Z,20.78
2023-07-27T03:58:41.778Z,20.86
2023-07-27T04:01:12.954Z,20.79
2023-07-27T04:04:00.116Z,20.61
2023-07-27T04:06:33.234Z,20.55
2023-07-27T04:09:12.586Z,20.49
2023-07-27T04:11:42.706Z,20.43
2023-07-27T04:14:19.751Z,20.38
2023-07-27T04:16:51.352Z,20.32
2023-07-27T04:19:26.123Z,20.36
2023-07-27T04:22:04.186Z,20.29
2023-07-27T04:24:47.654Z,20.39
2023-07-27T04:27:17.039Z,20.46
2023-07-27T04:29:48.696Z,20.60
2023-07-27T04:32:19.966Z,20.78
2023-07-27T04:34:55.297Z,20.90
2023-07-27T04:37:27.180Z,20.92
2023-07-27T04:39:56.896Z,20.92
2023-07-27T04:42:26.261Z,20.94
2023-07-27T04:45:03.366Z,21.04
2023-07-27T04:47:38.024Z,21.13
2023-07-27T04:50:15.184Z,21.12
2023-07-27T04:52:51.530Z,21.23
2023-07-27T04:55:23.990Z,21.23
2023-07-27T04:57:53.907Z,21.28
2023-07-27T05:00:24.827Z,21.27
2023-07-27T05:05:31.936Z,21.48
2023-07-27T05:08:06.759Z,21.55
2023-07-27T05:10:42.846Z,21.69
2023-07-27T05:13:13.908Z,21.80
2023-07-27T05:15:50.054Z,21.90
2023-07-27T05:18:22.499Z,22.16
2023-07-27T05:20:54.476Z,22.23
2023-07-27T05:23:28.213Z,22.18
2023-07-27T05:26:04.428Z,22.06
2023-07-27T05:28:34.798Z,21.81
2023-07-27T05:31:04.795Z,21.67
2023-07-27T05:33:41.038Z,21.55
2023-07-27T05:36:12.799Z,21.48
2023-07-27T05:38:49.335Z,21.48
2023-07-27T05:41:19.447Z,21.50
2023-07-27T05:43:51.810Z,21.47
2023-07-27T05:46:22.791Z,21.79
2023-07-27T05:48:52.931Z,22.03
2023-07-27T05:51:22.855Z,22.30
2023-07-27T05:54:01.263Z,22.62
2023-07-27T05:56:31.755Z,22.78
2023-07-27T05:59:04.680Z,22.72
2023-07-27T06:01:36.467Z,22.69
2023-07-27T06:04:09.096Z,22.73
2023-07-27T06:06:39.486Z,22.73
2023-07-27T06:09:12.805Z,22.64
2023-07-27T06:11:45.196Z,22.50
2023-07-27T06:14:16.083Z,22.16
2023-07-27T06:16:47.946Z,21.97
2023-07-27T06:19:17.608Z,22.01
2023-07-27T06:21:47.381Z,22.04
2023-07-27T06:24:32.964Z,22.02
2023-07-27T06:27:02.718Z,21.67
2023-07-27T06:29:33.751Z,21.40
2023-07-27T06:32:11.416Z,21.42
2023-07-27T06:34:42.285Z,21.47
2023-07-27T06:37:13.873Z,21.67
2023-07-27T06:39:47.212Z,21.81
2023-07-27T06:42:18.451Z,21.60
2023-07-27T06:45:03.259Z,21.60
2023-07-27T06:47:35.716Z,21.50
2023-07-27T06:50:06.933Z,21.68
2023-07-27T06:52:38.249Z,21.88
2023-07-27T06:57:49.818Z,21.80
2023-07-27T07:00:20.460Z,21.83
2023-07-27T07:02:51.801Z,21.80
2023-07-27T07:05:22.429Z,21.98
2023-07-27T07:07:53.024Z,22.16
2023-07-27T07:10:28.743Z,22.22
2023-07-27T07:12:59.749Z,22.18
2023-07-27T07:15:35.812Z,21.99
2023-07-27T07:18:07.547Z,22.04
2023-07-27T07:20:37.624Z,22.03
2023-07-27T07:23:07.061Z,21.80
2023-07-27T07:25:44.699Z,21.99
2023-07-27T07:28:16.237Z,22.20
2023-07-27T07:30:47.523Z,22.17
2023-07-27T07:33:18.561Z,22.26
2023-07-27T07:36:02.061Z,22.37
2023-07-27T07:38:34.329Z,22.42
2023-07-27T07:41:09.926Z,22.59
2023-07-27T07:43:40.332Z,22.73
2023-07-27T07:46:13.278Z,22.79
2023-07-27T07:48:44.146Z,22.82
2023-07-27T07:51:18.635Z,22.66
2023-07-27T07:53:54.978Z,22.60
2023-07-27T07:56:32.022Z,22.57
2023-07-27T07:59:02.095Z,22.55
2023-07-27T08:01:32.287Z,22.66
2023-07-27T08:04:05.868Z,22.77
2023-07-27T08:06:45.204Z,22.89
2023-07-27T08:09:16.412Z,22.98
2023-07-27T08:11:48.953Z,23.37
2023-07-27T08:14:19.078Z,23.47
2023-07-27T08:16:56.179Z,23.48
2023-07-27T08:19:27.000Z,23.68
2023-07-27T08:21:59.078Z,23.77
2023-07-27T08:24:31.272Z,23.80
2023-07-27T08:27:05.296Z,23.83
2023-07-27T08:29:36.881Z,23.59
2023-07-27T08:32:11.516Z,23.47
2023-07-27T08:34:47.501Z,23.61
2023-07-27T08:37:30.763Z,23.93
2023-07-27T08:40:02.277Z,24.08
2023-07-27T08:42:37.435Z,24.26
2023-07-27T08:45:14.060Z,24.38
2023-07-27T08:50:38.263Z,24.32
2023-07-27T08:53:09.854Z,24.30
2023-07-27T08:55:41.282Z,24.31
2023-07-27T08:58:21.884Z,24.37
2023-07-27T09:00:53.985Z,24.57
2023-07-27T09:03:25.732Z,24.68
2023-07-27T09:06:05.291Z,24.62
2023-07-27T09:08:35.656Z,24.63
2023-07-27T09:11:09.435Z,24.76
2023-07-27T09:13:43.416Z,24.86
2023-07-27T09:16:17.799Z,24.85
2023-07-27T09:21:26.217Z,24.87
2023-07-27T09:23:55.621Z,24.92
2023-07-27T09:26:35.259Z,25.08
2023-07-27T09:29:10.461Z,25.10
2023-07-27T09:31:49.163Z,24.85
2023-07-27T09:34:21.048Z,24.76
2023-07-27T09:36:52.393Z,24.72
2023-07-27T09:39:23.063Z,24.86
2023-07-27T09:44:31.792Z,24.88
2023-07-27T09:47:04.486Z,24.89
2023-07-27T09:49:35.530Z,24.57
2023-07-27T09:52:06.707Z,24.72
2023-07-27T09:54:39.469Z,24.88
2023-07-27T09:57:12.567Z,24.87
2023-07-27T09:59:49.332Z,25.09
2023-07-27T10:02:32.376Z,25.56
2023-07-27T10:05:05.210Z,25.63
2023-07-27T10:10:42.939Z,26.33
2023-07-27T10:13:16.793Z,26.44
2023-07-27T10:15:53.991Z,26.75
2023-07-27T10:18:29.068Z,26.91
2023-07-27T10:21:20.258Z,27.13
2023-07-27T10:24:00.282Z,27.09
2023-07-27T10:26:57.933Z,27.06
2023-07-27T10:29:37.105Z,26.92
2023-07-27T10:32:19.677Z,26.65
2023-07-27T10:34:54.822Z,26.23
2023-07-27T10:37:25.354Z,25.58
2023-07-27T10:39:58.719Z,25.67
2023-07-27T10:42:30.945Z,25.69
2023-07-27T10:45:15.070Z,25.61
2023-07-27T10:47:52.248Z,25.89
2023-07-27T10:50:21.739Z,26.11
2023-07-27T10:52:57.095Z,26.10
2023-07-27T10:55:28.209Z,26.09
2023-07-27T10:57:59.984Z,26.55
2023-07-27T11:00:39.020Z,27.14
2023-07-27T11:03:13.121Z,27.60
2023-07-27T11:05:44.108Z,27.29
2023-07-27T11:08:13.679Z,27.18
2023-07-27T11:10:44.305Z,26.92
2023-07-27T11:13:21.591Z,27.11
2023-07-27T11:15:53.081Z,27.60
2023-07-27T11:18:27.506Z,28.01
2023-07-27T11:20:58.255Z,28.18
2023-07-27T11:23:35.923Z,28.10
2023-07-27T11:26:09.297Z,27.96
2023-07-27T11:28:47.458Z,27.85
2023-07-27T11:31:19.972Z,27.98
2023-07-27T11:33:55.828Z,27.94
2023-07-27T11:36:32.675Z,27.55
2023-07-27T11:39:09.189Z,27.73
2023-07-27T11:41:47.980Z,28.07
2023-07-27T11:44:19.329Z,28.13
2023-07-27T11:46:51.471Z,28.19
2023-07-27T11:49:25.731Z,28.20
2023-07-27T11:51:56.624Z,28.55
2023-07-27T11:54:27.431Z,28.73
2023-07-27T11:57:00.025Z,28.89
2023-07-27T11:59:32.744Z,28.57
2023-07-27T12:02:03.061Z,27.88
2023-07-27T12:04:35.054Z,27.33
2023-07-27T12:07:08.027Z,27.00
2023-07-27T12:10:13.959Z,26.74
2023-07-27T12:12:50.519Z,26.58
2023-07-27T12:15:31.174Z,26.68
2023-07-27T12:18:04.022Z,26.75
2023-07-27T12:26:28.107Z,26.55
2023-07-27T12:28:42.955Z,25.92
2023-07-27T12:33:56.601Z,25.45
2023-07-27T12:36:28.425Z,25.73
2023-07-27T12:38:58.432Z,25.54
2023-07-27T12:41:28.744Z,25.42
2023-07-27T12:50:10.971Z,25.39
2023-07-27T12:52:43.456Z,25.71
2023-07-27T12:55:21.899Z,26.23
2023-07-27T12:57:52.003Z,26.63
2023-07-27T13:00:29.178Z,26.92
2023-07-27T13:03:01.454Z,27.05
2023-07-27T13:05:43.427Z,27.26
2023-07-27T13:08:17.093Z,27.46
2023-07-27T13:10:53.688Z,27.52
2023-07-27T13:13:29.933Z,27.51
2023-07-27T13:16:01.367Z,27.15
2023-07-27T13:18:34.248Z,27.07
2023-07-27T13:21:09.762Z,27.12
2023-07-27T13:23:49.357Z,27.14
2023-07-27T13:29:00.369Z,26.79
2023-07-27T13:31:40.252Z,26.58
2023-07-27T13:34:15.179Z,26.62
2023-07-27T13:36:52.253Z,26.86
2023-07-27T13:39:22.782Z,27.16
2023-07-27T13:41:52.671Z,27.41
2023-07-27T13:44:22.513Z,27.55
2023-07-27T13:46:52.228Z,27.26
2023-07-27T13:49:22.382Z,26.93
2023-07-27T13:51:53.799Z,26.39
2023-07-27T13:54:29.191Z,26.08
2023-07-27T13:57:06.626Z,25.93
2023-07-27T14:02:27.630Z,25.51
2023-07-27T14:04:59.438Z,25.51
2023-07-27T14:07:35.515Z,25.41
2023-07-27T14:10:13.552Z,25.55
2023-07-27T14:12:43.350Z,25.68
2023-07-27T14:15:14.157Z,25.75
2023-07-27T14:17:47.120Z,25.91
2023-07-27T14:23:05.485Z,26.01
2023-07-27T14:25:38.131Z,25.94
2023-07-27T14:28:13.534Z,25.79
2023-07-27T14:31:02.239Z,25.78
2023-07-27T14:33:49.782Z,25.89
2023-07-27T14:36:30.048Z,25.71
2023-07-27T14:41:40.252Z,25.82
2023-07-27T14:44:11.374Z,25.64
2023-07-27T14:46:47.139Z,25.76
2023-07-27T14:49:24.398Z,25.85
2023-07-27T14:51:58.640Z,25.96
2023-07-27T14:54:32.623Z,25.96
2023-07-27T14:57:13.683Z,25.99
2023-07-27T14:59:57.683Z,26.00
2023-07-27T15:05:33.568Z,25.92
2023-07-27T15:08:05.545Z,25.87
2023-07-27T15:10:39.983Z,25.77
2023-07-27T15:13:19.464Z,25.74
2023-07-27T15:15:50.875Z,25.74
2023-07-27T15:18:23.842Z,25.82
2023-07-27T15:20:57.697Z,25.91
2023-07-27T15:26:09.986Z,26.15
2023-07-27T15:28:40.810Z,26.29
2023-07-27T15:31:13.549Z,26.29
2023-07-27T15:36:22.447Z,25.96
2023-07-27T15:38:56.704Z,25.89
2023-07-27T15:44:05.033Z,25.69
2023-07-27T15:46:35.381Z,25.46
2023-07-27T15:49:11.752Z,25.24
2023-07-27T15:51:43.482Z,24.92
2023-07-27T15:54:19.898Z,24.90
2023-07-27T15:56:55.460Z,24.76
2023-07-27T15:59:31.402Z,24.63
2023-07-27T16:02:01.786Z,24.58
2023-07-27T16:04:32.684Z,24.51
2023-07-27T16:07:06.982Z,24.49
2023-07-27T16:09:40.688Z,24.38
2023-07-27T16:12:15.374Z,24.32
2023-07-27T16:14:52.260Z,24.19
2023-07-27T16:17:23.554Z,24.16
2023-07-27T16:20:01.938Z,24.07
2023-07-27T16:22:33.592Z,24.00
2023-07-27T16:25:10.156Z,23.99
2023-07-27T16:27:42.743Z,24.11
2023-07-27T16:30:22.140Z,24.16
2023-07-27T16:32:52.196Z,24.19
2023-07-27T16:35:22.357Z,24.07
2023-07-27T16:37:53.116Z,24.12
2023-07-27T16:40:30.100Z,23.98
2023-07-27T16:43:07.354Z,24.01
2023-07-27T16:45:46.180Z,23.95
2023-07-27T16:48:19.290Z,23.86
2023-07-27T16:50:49.555Z,23.81
2023-07-27T16:53:20.436Z,23.80
2023-07-27T16:55:50.290Z,23.72
2023-07-27T16:58:29.156Z,23.68
2023-07-27T17:01:01.405Z,23.63
2023-07-27T17:03:31.641Z,23.52
2023-07-27T17:06:06.467Z,23.38
2023-07-27T17:08:41.153Z,23.24
2023-07-27T17:11:26.037Z,23.19
2023-07-27T17:14:03.439Z,23.14
2023-07-27T17:16:33.882Z,23.11
2023-07-27T17:19:03.836Z,22.96
2023-07-27T17:21:34.386Z,22.96
2023-07-27T17:24:09.182Z,22.91
2023-07-27T17:26:40.751Z,22.78
2023-07-27T17:29:13.608Z,22.69
2023-07-27T17:32:05.289Z,22.61
2023-07-27T17:34:35.873Z,22.57
2023-07-27T17:37:10.640Z,22.49
2023-07-27T17:39:40.948Z,22.42
2023-07-27T17:42:15.842Z,22.39
2023-07-27T17:44:52.625Z,22.36
2023-07-27T17:47:27.151Z,22.27
2023-07-27T17:49:59.431Z,22.22
2023-07-27T17:52:31.564Z,22.18
2023-07-27T17:55:03.142Z,22.17
2023-07-27T17:57:34.657Z,22.07
2023-07-27T18:00:11.371Z,22.04
2023-07-27T18:02:46.342Z,22.04
2023-07-27T18:05:19.000Z,21.99
2023-07-27T18:07:59.000Z,21.99
2023-07-27T18:10:30.001Z,22.07
2023-07-27T18:12:59.750Z,22.12
2023-07-27T18:15:34.528Z,22.09
2023-07-27T18:18:18.404Z,22.13
2023-07-27T18:20:49.487Z,22.14
2023-07-27T18:23:22.525Z,21.99
2023-07-27T18:26:02.086Z,22.14
2023-07-27T18:28:32.022Z,22.02
2023-07-27T18:31:07.129Z,21.90
2023-07-27T18:33:37.403Z,22.14
2023-07-27T18:36:16.036Z,21.88
2023-07-27T18:38:57.775Z,22.06
2023-07-27T18:41:29.073Z,22.11
2023-07-27T18:44:00.434Z,22.00
2023-07-27T18:46:33.171Z,22.10
2023-07-27T18:49:09.248Z,22.17
2023-07-27T18:51:39.949Z,22.18
2023-07-27T18:54:14.871Z,22.20
2023-07-27T18:56:45.742Z,22.17
2023-07-27T18:59:16.410Z,22.21
2023-07-27T19:01:49.021Z,22.25
2023-07-27T19:04:23.660Z,22.31
2023-07-27T19:06:55.966Z,22.30
2023-07-27T19:09:31.069Z,22.28
2023-07-27T19:12:02.098Z,22.27
2023-07-27T19:14:31.670Z,22.25
2023-07-27T19:17:14.660Z,22.28
2023-07-27T19:19:44.545Z,22.29
2023-07-27T19:22:14.089Z,22.32
2023-07-27T19:24:43.770Z,22.34
2023-07-27T19:27:13.105Z,22.33
2023-07-27T19:29:43.635Z,22.30
2023-07-27T19:32:22.489Z,22.40
2023-07-27T19:34:59.100Z,22.43
2023-07-27T19:37:32.648Z,22.40
2023-07-27T19:40:03.332Z,22.47
2023-07-27T19:42:41.377Z,22.50
2023-07-27T19:45:13.709Z,22.55
2023-07-27T19:47:53.513Z,22.58
2023-07-27T19:50:30.396Z,22.58
2023-07-27T19:53:02.777Z,22.55
2023-07-27T19:55:32.374Z,22.59
2023-07-27T19:58:03.330Z,22.55
2023-07-27T20:00:38.375Z,22.46
2023-07-27T20:03:11.839Z,22.49
2023-07-27T20:05:42.365Z,22.46
2023-07-27T20:08:14.897Z,22.43
2023-07-27T20:10:47.102Z,22.44
2023-07-27T20:13:23.793Z,22.42
2023-07-27T20:15:55.339Z,22.40
2023-07-27T20:18:28.418Z,22.48
2023-07-27T20:21:03.561Z,22.48
2023-07-27T20:23:35.042Z,22.56
2023-07-27T20:26:04.157Z,22.64
2023-07-27T20:28:39.176Z,22.62
2023-07-27T20:31:10.441Z,22.58
2023-07-27T20:33:47.407Z,22.59
2023-07-27T20:36:18.980Z,22.55
2023-07-27T20:38:49.043Z,22.49
2023-07-27T20:41:22.158Z,22.45
2023-07-27T20:43:53.014Z,22.43
2023-07-27T20:46:23.138Z,22.45
2023-07-27T20:48:56.817Z,22.54
2023-07-27T20:51:30.704Z,22.58
2023-07-27T20:54:01.228Z,22.59
2023-07-27T20:56:30.776Z,22.61
2023-07-27T20:59:01.896Z,22.51
2023-07-27T21:01:32.202Z,22.56
2023-07-27T21:04:10.447Z,22.52
2023-07-27T21:06:41.006Z,22.45
2023-07-27T21:09:11.025Z,22.42
2023-07-27T21:11:40.879Z,22.40
2023-07-27T21:14:10.576Z,22.37
2023-07-27T21:16:47.659Z,22.37
2023-07-27T21:19:25.053Z,22.39
2023-07-27T21:21:57.588Z,22.37
2023-07-27T21:24:26.911Z,22.32
2023-07-27T21:26:57.462Z,22.42
2023-07-27T21:29:31.414Z,22.31
2023-07-27T21:32:07.860Z,22.45
2023-07-27T21:34:46.841Z,22.45
2023-07-27T21:37:16.177Z,22.46
2023-07-27T21:39:47.983Z,22.48
2023-07-27T21:42:19.809Z,22.51
2023-07-27T21:44:49.448Z,22.54
2023-07-27T21:47:18.780Z,22.50
2023-07-27T21:49:55.905Z,22.59
2023-07-27T21:52:25.803Z,22.58
2023-07-27T21:54:55.295Z,22.60
2023-07-27T21:57:25.831Z,22.62
2023-07-27T21:59:55.606Z,22.65
2023-07-27T22:02:32.634Z,22.63
2023-07-27T22:05:11.853Z,22.66
2023-07-27T22:07:41.845Z,22.64
2023-07-27T22:10:11.364Z,22.63
2023-07-27T22:12:48.574Z,22.66
2023-07-27T22:15:19.486Z,22.67
2023-07-27T22:17:51.996Z,22.64
2023-07-27T22:20:23.479Z,22.55
2023-07-27T22:22:53.310Z,22.50
2023-07-27T22:25:24.037Z,22.50
2023-07-27T22:27:59.958Z,22.47
2023-07-27T22:30:32.654Z,22.39
2023-07-27T22:33:08.326Z,22.36
2023-07-27T22:35:42.960Z,22.31
2023-07-27T22:38:13.516Z,22.26
2023-07-27T22:40:57.024Z,22.24
2023-07-27T22:48:39.016Z,22.05
2023-07-27T22:51:12.665Z,22.04
2023-07-27T22:53:48.896Z,22.03
2023-07-27T22:56:23.561Z,22.03
2023-07-27T22:58:53.316Z,22.02
2023-07-27T23:01:24.177Z,21.99
2023-07-27T23:03:59.570Z,21.98
2023-07-27T23:06:35.503Z,21.93
2023-07-27T23:09:06.091Z,21.87
2023-07-27T23:11:39.613Z,21.75
2023-07-27T23:14:10.717Z,21.78
2023-07-27T23:16:41.378Z,21.78
2023-07-27T23:19:21.086Z,21.73
2023-07-27T23:21:55.136Z,21.72
2023-07-27T23:24:30.603Z,21.83
2023-07-27T23:27:08.623Z,21.75
2023-07-27T23:29:43.261Z,21.71
2023-07-27T23:32:14.274Z,21.69
2023-07-27T23:34:44.832Z,21.79
2023-07-27T23:37:21.072Z,21.69
2023-07-27T23:39:56.454Z,21.57
2023-07-27T23:42:34.979Z,21.52
2023-07-27T23:45:05.855Z,21.48
2023-07-27T23:47:41.679Z,21.53
2023-07-27T23:50:14.168Z,21.49
2023-07-27T23:52:47.704Z,21.53
2023-07-27T23:55:19.922Z,21.54
2023-07-27T23:57:52.669Z,21.59
